Terminal Aerodrome Forecast
Issued by NWS

Home | Current Version | Previous Version | Text Only | Print | Product List | Glossary On
Versions: 1 2 3 4 5 6 7 8 9 10 11 12 13 14 15 16 17 18 19 20 21 22 23 24 25 26 27
000
FTUS43 KGLD 010945 AAA
TAFMCK
TAF AMD
KMCK 010945Z 0110/0206 30003KT 4SM BR SCT007
     FM011500 34010KT P6SM SCT070
     FM012200 03008KT P6SM SCT080 BKN250
     FM020400 33010G20KT P6SM VCTS BKN050CB=

USA.gov is the U.S. government's official web portal to all federal, state and local government web resources and services.